createdAt,value
2019-03-28T00:01:14.704Z,99.90
2019-03-28T00:03:43.194Z,99.90
2019-03-28T00:06:11.668Z,99.90
2019-03-28T00:08:40.156Z,99.90
2019-03-28T00:11:08.605Z,99.90
2019-03-28T00:13:37.097Z,99.90
2019-03-28T00:16:05.697Z,99.90
2019-03-28T00:18:34.164Z,99.90
2019-03-28T00:21:02.614Z,99.90
2019-03-28T00:23:32.751Z,99.90
2019-03-28T00:26:01.243Z,99.90
2019-03-28T00:28:29.757Z,99.90
2019-03-28T00:30:58.243Z,99.90
2019-03-28T00:33:27.007Z,99.90
2019-03-28T00:35:55.467Z,99.90
2019-03-28T00:38:23.933Z,99.90
2019-03-28T00:40:52.410Z,99.90
2019-03-28T00:43:20.871Z,99.90
2019-03-28T00:45:49.352Z,99.90
2019-03-28T00:48:17.802Z,99.90
2019-03-28T00:50:46.293Z,99.90
2019-03-28T00:53:14.752Z,99.90
2019-03-28T00:55:43.386Z,99.90
2019-03-28T00:58:11.877Z,99.90
2019-03-28T01:00:40.622Z,99.90
2019-03-28T01:03:09.174Z,99.90
2019-03-28T01:05:37.881Z,99.90
2019-03-28T01:08:06.365Z,99.90
2019-03-28T01:10:34.883Z,99.90
2019-03-28T01:13:03.368Z,99.90
2019-03-28T01:15:31.825Z,99.90
2019-03-28T01:18:00.307Z,99.90
2019-03-28T01:20:28.776Z,99.90
2019-03-28T01:22:57.265Z,99.90
2019-03-28T01:25:25.719Z,99.90
2019-03-28T01:27:54.522Z,99.90
2019-03-28T01:30:23.323Z,99.90
2019-03-28T01:32:51.807Z,99.90
2019-03-28T01:35:20.270Z,99.90
2019-03-28T01:37:48.730Z,99.90
2019-03-28T01:40:17.191Z,99.90
2019-03-28T01:42:45.647Z,99.90
2019-03-28T01:45:14.126Z,99.90
2019-03-28T01:47:43.174Z,99.90
2019-03-28T01:50:12.177Z,99.90
2019-03-28T01:52:40.645Z,99.90
2019-03-28T01:55:09.200Z,99.90
2019-03-28T01:57:37.659Z,99.90
2019-03-28T02:00:09.153Z,99.90
2019-03-28T02:02:37.609Z,99.90
2019-03-28T02:05:09.335Z,99.90
2019-03-28T02:07:37.798Z,99.90
2019-03-28T02:10:06.687Z,99.90
2019-03-28T02:12:35.185Z,99.90
2019-03-28T02:15:05.853Z,99.90
2019-03-28T02:17:34.317Z,99.90
2019-03-28T02:20:03.341Z,99.90
2019-03-28T02:22:31.825Z,99.90
2019-03-28T02:25:00.391Z,99.90
2019-03-28T02:27:28.844Z,99.90
2019-03-28T02:29:57.309Z,99.90
2019-03-28T02:32:25.768Z,99.90
2019-03-28T02:34:54.241Z,99.90
2019-03-28T02:37:22.695Z,99.60
2019-03-28T02:39:51.170Z,99.90
2019-03-28T02:42:19.884Z,99.90
2019-03-28T02:44:48.353Z,99.90
2019-03-28T02:47:16.810Z,99.90
2019-03-28T02:49:45.886Z,99.90
2019-03-28T02:52:14.434Z,99.90
2019-03-28T02:54:42.923Z,99.90
2019-03-28T02:57:11.378Z,99.90
2019-03-28T02:59:39.923Z,99.90
2019-03-28T03:02:08.754Z,99.90
2019-03-28T03:04:37.341Z,99.90
2019-03-28T03:07:05.845Z,99.90
2019-03-28T03:09:34.326Z,99.90
2019-03-28T03:12:03.370Z,99.90
2019-03-28T03:14:31.896Z,99.90
2019-03-28T03:17:00.389Z,99.90
2019-03-28T03:19:28.846Z,99.90
2019-03-28T03:21:57.321Z,99.90
2019-03-28T03:24:25.805Z,99.90
2019-03-28T03:26:54.611Z,99.90
2019-03-28T03:29:23.135Z,99.90
2019-03-28T03:31:53.606Z,99.90
2019-03-28T03:34:21.799Z,99.90
2019-03-28T03:36:50.321Z,99.90
2019-03-28T03:39:18.817Z,99.90
2019-03-28T03:41:47.354Z,99.90
2019-03-28T03:44:16.177Z,99.90
2019-03-28T03:46:44.911Z,99.90
2019-03-28T03:49:13.398Z,99.90
2019-03-28T03:51:41.843Z,99.90
2019-03-28T03:54:10.342Z,99.80
2019-03-28T03:56:38.897Z,99.50
2019-03-28T03:59:07.433Z,99.80
2019-03-28T04:01:35.906Z,99.90
2019-03-28T04:04:04.446Z,99.90
2019-03-28T04:06:32.923Z,99.90
2019-03-28T04:09:01.380Z,99.90
2019-03-28T04:11:29.853Z,99.90
2019-03-28T04:13:58.302Z,99.80
2019-03-28T04:16:27.068Z,99.90
2019-03-28T04:18:55.592Z,99.90
2019-03-28T04:21:24.080Z,99.90
2019-03-28T04:23:52.539Z,99.90
2019-03-28T04:26:20.990Z,99.90
2019-03-28T04:28:49.470Z,99.90
2019-03-28T04:31:17.999Z,99.90
2019-03-28T04:33:46.847Z,99.90
2019-03-28T04:36:15.347Z,99.90
2019-03-28T04:38:43.803Z,99.90
2019-03-28T04:41:12.286Z,99.90
2019-03-28T04:43:40.778Z,99.90
2019-03-28T04:46:09.298Z,99.90
2019-03-28T04:48:38.053Z,99.90
2019-03-28T04:51:06.570Z,99.90
2019-03-28T04:53:35.035Z,99.90
2019-03-28T04:56:03.788Z,99.90
2019-03-28T04:58:43.775Z,99.80
2019-03-28T05:01:02.470Z,99.10
2019-03-28T05:03:30.934Z,98.80
2019-03-28T05:05:59.391Z,98.80
2019-03-28T05:08:27.859Z,99.20
2019-03-28T05:10:56.329Z,99.60
2019-03-28T05:13:24.820Z,99.20
2019-03-28T05:15:53.285Z,99.10
2019-03-28T05:18:21.997Z,99.20
2019-03-28T05:20:50.464Z,99.10
2019-03-28T05:23:18.916Z,99.30
2019-03-28T05:25:47.391Z,99.20
2019-03-28T05:28:15.872Z,99.60
2019-03-28T05:30:44.362Z,99.20
2019-03-28T05:33:12.835Z,99.20
2019-03-28T05:35:41.391Z,99.20
2019-03-28T05:38:09.848Z,98.90
2019-03-28T05:40:38.289Z,99.60
2019-03-28T05:43:07.024Z,99.00
2019-03-28T05:45:35.491Z,99.80
2019-03-28T05:48:04.031Z,99.90
2019-03-28T05:50:32.474Z,99.90
2019-03-28T05:53:00.959Z,99.90
2019-03-28T05:55:29.676Z,99.90
2019-03-28T05:57:58.199Z,99.90
2019-03-28T06:00:26.770Z,99.90
2019-03-28T06:02:55.249Z,99.90
2019-03-28T06:05:23.709Z,99.90
2019-03-28T06:07:52.193Z,99.90
2019-03-28T06:10:20.677Z,99.90
2019-03-28T06:12:49.142Z,99.90
2019-03-28T06:15:17.606Z,99.90
2019-03-28T06:17:46.145Z,99.90
2019-03-28T06:20:14.773Z,99.90
2019-03-28T06:22:43.214Z,99.90
2019-03-28T06:25:11.818Z,99.90
2019-03-28T06:27:40.337Z,99.90
2019-03-28T06:30:09.661Z,99.90
2019-03-28T06:32:43.087Z,99.90
2019-03-28T06:35:08.643Z,99.90
2019-03-28T06:37:37.116Z,99.90
2019-03-28T06:40:06.098Z,99.80
2019-03-28T06:42:34.966Z,99.90
2019-03-28T06:45:04.792Z,99.70
2019-03-28T06:47:33.256Z,99.90
2019-03-28T06:50:02.066Z,99.50
2019-03-28T06:52:30.583Z,99.90
2019-03-28T06:54:59.058Z,99.90
2019-03-28T06:57:27.531Z,99.90
2019-03-28T06:59:55.992Z,99.90
2019-03-28T07:02:24.472Z,99.90
2019-03-28T07:04:53.006Z,99.90
2019-03-28T07:07:21.492Z,99.90
2019-03-28T07:09:50.019Z,99.90
2019-03-28T07:12:18.651Z,99.90
2019-03-28T07:14:47.082Z,99.90
2019-03-28T07:17:15.869Z,99.90
2019-03-28T07:19:44.337Z,99.90
2019-03-28T07:22:12.830Z,99.90
2019-03-28T07:24:41.308Z,99.90
2019-03-28T07:27:09.791Z,99.90
2019-03-28T07:29:50.345Z,99.90
2019-03-28T07:32:08.510Z,99.90
2019-03-28T07:34:37.010Z,99.90
2019-03-28T07:37:05.792Z,99.90
2019-03-28T07:39:35.855Z,99.90
2019-03-28T07:42:04.370Z,99.90
2019-03-28T07:44:32.843Z,99.90
2019-03-28T07:47:01.294Z,99.90
2019-03-28T07:49:29.756Z,99.90
2019-03-28T07:51:58.594Z,99.90
2019-03-28T07:54:27.387Z,99.90
2019-03-28T07:56:56.185Z,99.90
2019-03-28T07:59:24.640Z,99.90
2019-03-28T08:01:53.448Z,99.90
2019-03-28T08:04:22.239Z,99.90
2019-03-28T08:06:51.857Z,99.90
2019-03-28T08:09:20.452Z,99.90
2019-03-28T08:11:48.947Z,99.90
2019-03-28T08:14:17.502Z,98.60
2019-03-28T08:16:45.997Z,99.80
2019-03-28T08:19:14.467Z,99.90
2019-03-28T08:21:43.023Z,99.80
2019-03-28T08:24:11.486Z,99.60
2019-03-28T08:26:40.007Z,99.40
2019-03-28T08:29:08.491Z,99.50
2019-03-28T08:31:40.757Z,97.80
2019-03-28T08:34:08.773Z,97.70
2019-03-28T08:36:37.983Z,98.20
2019-03-28T08:39:07.180Z,98.40
2019-03-28T08:41:35.636Z,98.50
2019-03-28T08:44:07.176Z,98.60
2019-03-28T08:46:34.394Z,97.30
2019-03-28T08:49:02.830Z,96.90
2019-03-28T08:51:31.752Z,97.50
2019-03-28T08:54:00.221Z,97.80
2019-03-28T08:56:28.680Z,97.30
2019-03-28T08:58:57.169Z,97.80
2019-03-28T09:01:26.739Z,96.90
2019-03-28T09:03:55.192Z,97.70
2019-03-28T09:06:23.672Z,95.60
2019-03-28T09:08:52.496Z,94.50
2019-03-28T09:11:21.566Z,96.60
2019-03-28T09:13:50.287Z,96.60
2019-03-28T09:16:18.814Z,96.30
2019-03-28T09:18:47.282Z,94.50
2019-03-28T09:21:15.735Z,95.00
2019-03-28T09:23:44.202Z,94.40
2019-03-28T09:26:12.732Z,94.30
2019-03-28T09:28:41.229Z,93.90
2019-03-28T09:31:19.703Z,93.90
2019-03-28T09:33:40.821Z,93.50
2019-03-28T09:36:09.691Z,94.50
2019-03-28T09:38:38.185Z,94.70
2019-03-28T09:41:06.650Z,94.10
2019-03-28T09:43:35.111Z,94.00
2019-03-28T09:46:03.582Z,94.90
2019-03-28T09:48:32.029Z,94.70
2019-03-28T09:51:00.677Z,94.70
2019-03-28T09:53:29.239Z,94.50
2019-03-28T09:55:58.041Z,95.00
2019-03-28T09:58:26.489Z,93.60
2019-03-28T10:01:02.789Z,94.80
2019-03-28T10:03:26.880Z,95.10
2019-03-28T10:05:55.342Z,94.10
2019-03-28T10:08:23.807Z,93.70
2019-03-28T10:10:52.302Z,93.80
2019-03-28T10:13:20.734Z,93.60
2019-03-28T10:15:49.205Z,93.00
2019-03-28T10:18:17.702Z,92.50
2019-03-28T10:20:46.248Z,93.60
2019-03-28T10:23:14.805Z,94.10
2019-03-28T10:25:43.258Z,94.00
2019-03-28T10:28:11.991Z,92.40
2019-03-28T10:30:42.299Z,92.70
2019-03-28T10:33:10.849Z,92.70
2019-03-28T10:35:39.372Z,92.70
2019-03-28T10:38:07.915Z,93.50
2019-03-28T10:40:36.686Z,92.00
2019-03-28T10:43:05.585Z,91.00
2019-03-28T10:45:34.153Z,88.00
2019-03-28T10:48:03.024Z,90.90
2019-03-28T10:50:40.780Z,90.70
2019-03-28T10:53:02.091Z,91.40
2019-03-28T10:55:30.553Z,90.50
2019-03-28T10:57:59.014Z,89.20
2019-03-28T11:00:27.482Z,89.90
2019-03-28T11:02:56.016Z,90.10
2019-03-28T11:05:24.523Z,90.00
2019-03-28T11:07:52.976Z,89.60
2019-03-28T11:10:21.834Z,90.20
2019-03-28T11:12:50.363Z,88.20
2019-03-28T11:15:18.844Z,88.70
2019-03-28T11:17:47.629Z,88.40
2019-03-28T11:20:16.428Z,88.80
2019-03-28T11:22:44.973Z,89.00
2019-03-28T11:25:13.635Z,90.00
2019-03-28T11:27:42.124Z,90.20
2019-03-28T11:30:10.713Z,90.10
2019-03-28T11:32:39.203Z,89.50
2019-03-28T11:35:08.106Z,88.90
2019-03-28T11:37:37.405Z,87.90
2019-03-28T11:40:10.530Z,89.00
2019-03-28T11:42:39.257Z,90.30
2019-03-28T11:45:09.559Z,90.70
2019-03-28T11:47:38.475Z,90.40
2019-03-28T11:50:08.884Z,90.60
2019-03-28T11:52:37.435Z,90.20
2019-03-28T11:55:06.649Z,90.20
2019-03-28T11:57:35.859Z,90.30
2019-03-28T12:00:11.835Z,90.50
2019-03-28T12:02:40.442Z,89.70
2019-03-28T12:05:09.330Z,90.50
2019-03-28T12:07:37.871Z,90.90
2019-03-28T12:10:08.471Z,90.70
2019-03-28T12:12:37.039Z,88.80
2019-03-28T12:15:07.456Z,88.90
2019-03-28T12:17:35.929Z,90.00
2019-03-28T12:20:06.902Z,89.60
2019-03-28T12:22:35.432Z,90.70
2019-03-28T12:25:07.334Z,90.80
2019-03-28T12:27:35.813Z,90.30
2019-03-28T12:30:10.815Z,90.40
2019-03-28T12:32:39.271Z,90.70
2019-03-28T12:35:08.479Z,90.90
2019-03-28T12:37:37.087Z,91.20
2019-03-28T12:40:07.236Z,92.00
2019-03-28T12:42:35.722Z,91.30
2019-03-28T12:45:07.117Z,91.40
2019-03-28T12:47:42.392Z,91.80
2019-03-28T12:50:08.423Z,90.30
2019-03-28T12:52:36.997Z,90.80
2019-03-28T12:55:07.702Z,90.00
2019-03-28T12:57:36.161Z,90.00
2019-03-28T13:00:09.971Z,88.80
2019-03-28T13:02:38.503Z,88.70
2019-03-28T13:05:08.423Z,89.30
2019-03-28T13:07:37.049Z,89.80
2019-03-28T13:10:10.136Z,89.10
2019-03-28T13:12:38.600Z,90.10
2019-03-28T13:15:07.519Z,90.30
2019-03-28T13:17:36.147Z,89.60
2019-03-28T13:20:07.945Z,89.20
2019-03-28T13:22:36.418Z,90.10
2019-03-28T13:25:06.542Z,90.20
2019-03-28T13:27:36.487Z,90.30
2019-03-28T13:30:13.497Z,90.80
2019-03-28T13:32:42.543Z,90.30
2019-03-28T13:35:11.455Z,90.70
2019-03-28T13:37:39.937Z,90.70
2019-03-28T13:40:08.971Z,90.50
2019-03-28T13:42:38.822Z,91.50
2019-03-28T13:45:10.308Z,91.30
2019-03-28T13:47:38.836Z,91.00
2019-03-28T13:50:09.869Z,91.00
2019-03-28T13:52:38.327Z,91.20
2019-03-28T13:55:07.754Z,91.30
2019-03-28T13:57:36.389Z,90.40
2019-03-28T14:00:06.655Z,91.40
2019-03-28T14:02:35.583Z,91.10
2019-03-28T14:05:05.711Z,92.40
2019-03-28T14:07:34.187Z,90.20
2019-03-28T14:10:02.796Z,90.10
2019-03-28T14:12:31.616Z,90.50
2019-03-28T14:15:00.400Z,90.90
2019-03-28T14:17:29.192Z,90.50
2019-03-28T14:19:57.661Z,90.40
2019-03-28T14:22:26.415Z,91.10
2019-03-28T14:24:55.194Z,89.80
2019-03-28T14:27:23.647Z,88.50
2019-03-28T14:29:52.136Z,90.30
2019-03-28T14:32:20.610Z,87.80
2019-03-28T14:34:49.097Z,88.20
2019-03-28T14:37:17.552Z,88.70
2019-03-28T14:39:49.107Z,89.40
2019-03-28T14:42:19.427Z,90.00
2019-03-28T14:44:46.413Z,89.70
2019-03-28T14:47:14.883Z,88.80
2019-03-28T14:49:43.349Z,89.10
2019-03-28T14:52:11.835Z,90.30
2019-03-28T14:54:40.333Z,91.70
2019-03-28T14:57:08.931Z,91.10
2019-03-28T14:59:38.941Z,90.50
2019-03-28T15:02:07.493Z,90.20
2019-03-28T15:04:35.975Z,90.20
2019-03-28T15:07:07.156Z,90.40
2019-03-28T15:09:35.808Z,90.60
2019-03-28T15:12:04.596Z,90.80
2019-03-28T15:14:33.100Z,90.50
2019-03-28T15:17:01.577Z,90.70
2019-03-28T15:19:30.065Z,90.90
2019-03-28T15:21:58.545Z,90.90
2019-03-28T15:24:27.322Z,91.40
2019-03-28T15:26:55.836Z,91.60
2019-03-28T15:29:24.348Z,91.70
2019-03-28T15:31:52.809Z,91.50
2019-03-28T15:34:21.305Z,91.70
2019-03-28T15:36:49.753Z,91.80
2019-03-28T15:39:18.235Z,91.80
2019-03-28T15:41:46.696Z,92.00
2019-03-28T15:44:15.260Z,92.30
2019-03-28T15:46:43.726Z,92.50
2019-03-28T15:49:12.207Z,92.40
2019-03-28T15:51:40.667Z,92.30
2019-03-28T15:54:09.124Z,93.00
2019-03-28T15:56:37.593Z,92.90
2019-03-28T15:59:06.108Z,92.60
2019-03-28T16:01:34.653Z,92.70
2019-03-28T16:04:03.094Z,92.80
2019-03-28T16:06:31.570Z,93.30
2019-03-28T16:09:00.045Z,93.50
2019-03-28T16:11:28.527Z,93.50
2019-03-28T16:13:56.977Z,93.60
2019-03-28T16:16:25.477Z,93.20
2019-03-28T16:18:53.926Z,93.30
2019-03-28T16:21:22.404Z,92.80
2019-03-28T16:23:51.185Z,93.00
2019-03-28T16:26:19.654Z,92.50
2019-03-28T16:28:48.145Z,92.80
2019-03-28T16:31:16.664Z,93.20
2019-03-28T16:33:45.219Z,93.30
2019-03-28T16:36:13.752Z,93.40
2019-03-28T16:38:42.264Z,93.10
2019-03-28T16:41:10.777Z,93.00
2019-03-28T16:43:39.245Z,93.10
2019-03-28T16:46:07.929Z,93.60
2019-03-28T16:48:36.466Z,93.40
2019-03-28T16:51:04.963Z,93.60
2019-03-28T16:53:33.560Z,93.70
2019-03-28T16:56:02.051Z,94.10
2019-03-28T16:58:30.504Z,94.20
2019-03-28T17:00:58.987Z,94.70
2019-03-28T17:03:27.444Z,94.20
2019-03-28T17:05:56.237Z,93.50
2019-03-28T17:08:26.636Z,93.70
2019-03-28T17:10:55.319Z,93.90
2019-03-28T17:13:23.775Z,94.30
2019-03-28T17:15:52.679Z,94.50
2019-03-28T17:18:21.141Z,94.90
2019-03-28T17:20:50.395Z,94.70
2019-03-28T17:23:19.097Z,94.90
2019-03-28T17:25:47.645Z,93.70
2019-03-28T17:28:16.263Z,93.50
2019-03-28T17:30:45.102Z,93.50
2019-03-28T17:33:13.637Z,93.70
2019-03-28T17:35:42.245Z,94.50
2019-03-28T17:38:10.717Z,93.50
2019-03-28T17:40:39.183Z,93.70
2019-03-28T17:43:07.669Z,94.50
2019-03-28T17:45:36.129Z,94.30
2019-03-28T17:48:05.313Z,94.90
2019-03-28T17:50:33.965Z,95.40
2019-03-28T17:53:02.520Z,94.90
2019-03-28T17:55:31.052Z,95.10
2019-03-28T17:57:59.556Z,95.60
2019-03-28T18:00:28.316Z,95.70
2019-03-28T18:03:08.442Z,96.00
2019-03-28T18:05:27.198Z,95.70
2019-03-28T18:07:56.027Z,96.80
2019-03-28T18:10:24.637Z,97.30
2019-03-28T18:12:53.124Z,97.30
2019-03-28T18:15:21.638Z,97.20
2019-03-28T18:17:50.148Z,96.90
2019-03-28T18:20:18.900Z,97.40
2019-03-28T18:22:47.359Z,97.50
2019-03-28T18:25:15.991Z,98.10
2019-03-28T18:27:44.804Z,97.30
2019-03-28T18:30:13.486Z,98.30
2019-03-28T18:32:41.959Z,98.20
2019-03-28T18:35:10.818Z,98.40
2019-03-28T18:37:39.301Z,97.60
2019-03-28T18:40:08.993Z,97.70
2019-03-28T18:42:37.847Z,99.00
2019-03-28T18:45:07.986Z,99.40
2019-03-28T18:47:36.812Z,99.20
2019-03-28T18:50:07.113Z,99.30
2019-03-28T18:52:35.728Z,98.70
2019-03-28T18:55:06.492Z,98.80
2019-03-28T18:57:34.987Z,98.70
2019-03-28T19:00:07.043Z,99.00
2019-03-28T19:02:35.558Z,99.50
2019-03-28T19:05:18.676Z,99.80
2019-03-28T19:07:35.894Z,99.90
2019-03-28T19:10:06.449Z,99.90
2019-03-28T19:12:34.937Z,99.90
2019-03-28T19:15:04.101Z,99.90
2019-03-28T19:17:33.103Z,99.90
2019-03-28T19:20:02.537Z,99.90
2019-03-28T19:22:30.999Z,99.90
2019-03-28T19:24:59.507Z,99.90
2019-03-28T19:27:30.238Z,99.90
2019-03-28T19:29:58.167Z,99.90
2019-03-28T19:32:29.625Z,99.90
2019-03-28T19:34:56.833Z,99.90
2019-03-28T19:37:25.519Z,99.90
2019-03-28T19:39:53.966Z,99.90
2019-03-28T19:42:22.695Z,99.90
2019-03-28T19:44:52.419Z,99.90
2019-03-28T19:47:20.879Z,99.90
2019-03-28T19:49:49.966Z,99.90
2019-03-28T19:52:18.503Z,99.90
2019-03-28T19:54:47.263Z,99.90
2019-03-28T19:57:15.719Z,99.90
2019-03-28T19:59:44.185Z,99.90
2019-03-28T20:02:14.233Z,99.90
2019-03-28T20:04:43.340Z,99.90
2019-03-28T20:07:21.338Z,99.90
2019-03-28T20:09:42.344Z,99.90
2019-03-28T20:12:10.817Z,99.90
2019-03-28T20:14:39.291Z,99.90
2019-03-28T20:17:07.737Z,99.90
2019-03-28T20:19:36.212Z,99.90
2019-03-28T20:22:04.912Z,99.90
2019-03-28T20:24:33.481Z,99.90
2019-03-28T20:27:01.957Z,99.90
2019-03-28T20:29:33.284Z,99.90
2019-03-28T20:32:00.609Z,99.90
2019-03-28T20:34:29.859Z,99.90
2019-03-28T20:36:58.720Z,99.90
2019-03-28T20:39:27.193Z,99.90
2019-03-28T20:41:55.669Z,99.90
2019-03-28T20:44:24.147Z,99.90
2019-03-28T20:46:52.887Z,99.90
2019-03-28T20:49:21.419Z,99.90
2019-03-28T20:51:49.901Z,99.90
2019-03-28T20:54:18.364Z,99.90
2019-03-28T20:56:46.839Z,99.90
2019-03-28T20:59:18.630Z,99.90
2019-03-28T21:01:47.427Z,99.90
2019-03-28T21:04:15.900Z,99.90
2019-03-28T21:06:46.009Z,99.90
2019-03-28T21:09:14.555Z,99.90
2019-03-28T21:11:43.033Z,99.90
2019-03-28T21:14:11.487Z,99.90
2019-03-28T21:16:39.982Z,99.90
2019-03-28T21:19:08.451Z,99.90
2019-03-28T21:21:36.909Z,99.90
2019-03-28T21:24:05.392Z,99.90
2019-03-28T21:26:33.841Z,99.90
2019-03-28T21:29:02.403Z,99.90
2019-03-28T21:31:30.854Z,99.90
2019-03-28T21:33:59.377Z,99.90
2019-03-28T21:36:30.133Z,99.90
2019-03-28T21:38:58.075Z,99.90
2019-03-28T21:41:26.555Z,99.90
2019-03-28T21:43:55.328Z,99.90
2019-03-28T21:46:24.123Z,99.90
2019-03-28T21:48:52.593Z,99.90
2019-03-28T21:51:21.324Z,99.90
2019-03-28T21:53:49.817Z,99.90
2019-03-28T21:56:18.282Z,99.90
2019-03-28T21:58:46.743Z,99.90
2019-03-28T22:01:15.202Z,99.90
2019-03-28T22:03:43.742Z,99.90
2019-03-28T22:06:12.236Z,99.90
2019-03-28T22:08:40.685Z,99.90
2019-03-28T22:11:09.173Z,99.90
2019-03-28T22:13:38.002Z,99.90
2019-03-28T22:16:07.807Z,99.90
2019-03-28T22:18:36.415Z,99.90
2019-03-28T22:21:04.894Z,99.90
2019-03-28T22:23:33.373Z,99.90
2019-03-28T22:26:02.165Z,99.90
2019-03-28T22:28:30.719Z,99.90
2019-03-28T22:30:59.195Z,99.90
2019-03-28T22:33:27.731Z,99.90
2019-03-28T22:35:56.232Z,99.90
2019-03-28T22:38:24.759Z,99.90
2019-03-28T22:40:53.236Z,99.90
2019-03-28T22:43:21.701Z,99.90
2019-03-28T22:45:50.225Z,99.90
2019-03-28T22:48:18.699Z,99.90
2019-03-28T22:50:47.424Z,99.90
2019-03-28T22:53:15.909Z,99.90
2019-03-28T22:55:44.377Z,99.90
2019-03-28T22:58:12.838Z,99.90
2019-03-28T23:00:45.940Z,99.90
2019-03-28T23:03:16.407Z,99.90
2019-03-28T23:05:45.083Z,99.90
2019-03-28T23:08:13.617Z,99.90
2019-03-28T23:10:42.148Z,99.90
2019-03-28T23:13:10.713Z,99.90
2019-03-28T23:15:39.168Z,99.90
2019-03-28T23:18:07.702Z,99.90
2019-03-28T23:20:36.270Z,99.90
2019-03-28T23:23:05.033Z,99.90
2019-03-28T23:25:33.585Z,99.90
2019-03-28T23:28:02.072Z,99.90
2019-03-28T23:30:30.542Z,99.90
2019-03-28T23:32:59.004Z,99.90
2019-03-28T23:35:27.849Z,99.90
2019-03-28T23:37:56.304Z,99.90
2019-03-28T23:40:26.469Z,99.90
2019-03-28T23:42:55.180Z,99.90
2019-03-28T23:45:23.726Z,99.90
2019-03-28T23:47:52.193Z,99.90
2019-03-28T23:50:20.661Z,99.90
2019-03-28T23:52:49.124Z,99.90
2019-03-28T23:55:18.813Z,99.90
2019-03-28T23:57:47.479Z,99.90
